createdAt,value
2018-11-04T00:04:17.749Z,20.90
2018-11-04T00:08:58.173Z,25.87
2018-11-04T00:13:38.460Z,27.60
2018-11-04T00:18:19.040Z,55.20
2018-11-04T00:22:59.021Z,57.97
2018-11-04T00:27:38.972Z,50.33
2018-11-04T00:32:19.719Z,42.80
2018-11-04T00:36:59.780Z,47.97
2018-11-04T00:41:39.662Z,42.47
2018-11-04T00:46:19.436Z,25.83
2018-11-04T00:50:59.145Z,20.53
2018-11-04T00:55:43.233Z,16.87
2018-11-04T01:00:23.108Z,19.03
2018-11-04T01:05:02.945Z,22.13
2018-11-04T01:09:42.921Z,46.73
2018-11-04T01:14:23.169Z,52.77
2018-11-04T01:19:03.211Z,33.57
2018-11-04T01:23:43.725Z,31.63
2018-11-04T01:28:23.658Z,30.20
2018-11-04T01:33:04.693Z,20.13
2018-11-04T01:37:44.628Z,22.77
2018-11-04T01:42:24.453Z,29.13
2018-11-04T01:47:04.481Z,24.93
2018-11-04T01:51:44.542Z,16.73
2018-11-04T01:56:24.403Z,13.03
2018-11-04T02:01:05.345Z,12.67
2018-11-04T02:05:45.497Z,12.60
2018-11-04T02:10:25.667Z,13.30
2018-11-04T02:15:06.278Z,15.88
2018-11-04T02:19:46.049Z,19.87
2018-11-04T02:24:26.753Z,17.57
2018-11-04T02:29:06.720Z,15.27
2018-11-04T02:33:46.893Z,14.43
2018-11-04T02:38:27.357Z,15.30
2018-11-04T02:43:08.244Z,16.73
2018-11-04T02:47:48.837Z,18.43
2018-11-04T02:52:28.797Z,15.43
2018-11-04T02:57:10.092Z,14.27
2018-11-04T03:01:50.631Z,12.03
2018-11-04T03:06:31.796Z,11.10
2018-11-04T03:11:11.809Z,11.77
2018-11-04T03:15:53.999Z,12.93
2018-11-04T03:20:35.298Z,14.43
2018-11-04T03:25:15.607Z,12.40
2018-11-04T03:29:55.577Z,13.37
2018-11-04T03:34:36.421Z,14.47
2018-11-04T03:39:16.475Z,13.80
2018-11-04T03:43:57.927Z,12.50
2018-11-04T03:48:37.997Z,12.10
2018-11-04T03:53:18.065Z,12.17
2018-11-04T03:57:58.034Z,13.00
2018-11-04T04:02:39.081Z,12.87
2018-11-04T04:07:18.742Z,12.30
2018-11-04T04:11:59.759Z,13.27
2018-11-04T04:16:39.754Z,13.43
2018-11-04T04:21:19.788Z,15.50
2018-11-04T04:26:00.320Z,17.30
2018-11-04T04:30:39.917Z,16.33
2018-11-04T04:35:20.597Z,12.07
2018-11-04T04:40:00.706Z,12.23
2018-11-04T04:44:40.424Z,12.73
2018-11-04T04:49:20.193Z,13.30
2018-11-04T04:54:00.062Z,13.70
2018-11-04T04:58:40.049Z,14.37
2018-11-04T05:03:19.677Z,13.97
2018-11-04T05:07:59.402Z,14.53
2018-11-04T05:12:39.876Z,19.87
2018-11-04T05:17:20.010Z,42.23
2018-11-04T05:21:59.827Z,31.87
2018-11-04T05:26:39.636Z,19.00
2018-11-04T05:31:19.701Z,18.63
2018-11-04T05:35:59.715Z,28.83
2018-11-04T05:40:39.804Z,17.23
2018-11-04T05:45:20.325Z,23.57
2018-11-04T05:50:00.365Z,16.37
2018-11-04T05:54:40.732Z,18.30
2018-11-04T05:59:20.945Z,19.23
2018-11-04T06:04:00.996Z,18.40
2018-11-04T06:08:41.977Z,16.10
2018-11-04T06:13:21.728Z,21.67
2018-11-04T06:18:01.691Z,23.83
2018-11-04T06:22:42.705Z,19.23
2018-11-04T06:27:23.865Z,20.37
2018-11-04T06:32:03.864Z,20.10
2018-11-04T06:36:44.501Z,20.60
2018-11-04T06:41:25.335Z,19.00
2018-11-04T06:46:06.416Z,24.70
2018-11-04T06:50:46.362Z,21.07
2018-11-04T06:55:26.712Z,21.67
2018-11-04T07:00:08.139Z,22.03
2018-11-04T07:04:47.999Z,20.33
2018-11-04T07:09:27.916Z,22.43
2018-11-04T07:14:07.792Z,17.80
2018-11-04T07:18:48.089Z,16.73
2018-11-04T07:23:27.825Z,16.30
2018-11-04T07:28:09.150Z,15.47
2018-11-04T07:32:49.032Z,13.63
2018-11-04T07:37:29.004Z,16.00
2018-11-04T07:42:09.100Z,19.83
2018-11-04T07:46:48.949Z,16.03
2018-11-04T07:51:29.260Z,19.23
2018-11-04T07:56:08.838Z,18.27
2018-11-04T08:00:48.692Z,15.03
2018-11-04T08:05:29.396Z,15.57
2018-11-04T08:10:12.845Z,17.63
2018-11-04T08:14:52.589Z,24.80
2018-11-04T08:19:33.205Z,18.73
2018-11-04T08:24:14.167Z,18.20
2018-11-04T08:28:54.341Z,15.17
2018-11-04T08:33:34.071Z,15.83
2018-11-04T08:38:13.853Z,16.47
2018-11-04T08:42:54.481Z,19.85
2018-11-04T08:47:35.066Z,22.87
2018-11-04T08:52:16.156Z,19.87
2018-11-04T08:56:56.369Z,19.60
2018-11-04T09:01:36.168Z,19.95
2018-11-04T09:06:16.606Z,19.30
2018-11-04T09:10:56.290Z,18.70
2018-11-04T09:15:37.945Z,28.17
2018-11-04T09:20:18.230Z,22.02
2018-11-04T09:24:58.569Z,18.92
2018-11-04T09:29:39.574Z,18.25
2018-11-04T09:34:19.384Z,18.05
2018-11-04T09:39:00.808Z,19.52
2018-11-04T09:43:41.048Z,24.52
2018-11-04T09:48:21.880Z,26.27
2018-11-04T09:53:02.088Z,19.73
2018-11-04T09:57:43.432Z,19.75
2018-11-04T10:02:25.260Z,16.95
2018-11-04T10:07:07.212Z,20.05
2018-11-04T10:11:47.826Z,20.88
2018-11-04T10:16:28.258Z,22.60
2018-11-04T10:21:08.973Z,23.20
2018-11-04T10:25:48.408Z,21.60
2018-11-04T10:30:29.117Z,21.15
2018-11-04T10:35:10.359Z,22.40
2018-11-04T10:39:50.684Z,21.82
2018-11-04T10:44:31.243Z,22.70
2018-11-04T10:49:12.327Z,22.55
2018-11-04T10:53:52.221Z,24.30
2018-11-04T10:58:33.045Z,22.77
2018-11-04T11:08:59.420Z,21.45
2018-11-04T11:13:39.614Z,22.07
2018-11-04T11:18:20.446Z,22.65
2018-11-04T11:23:00.710Z,21.87
2018-11-04T11:27:40.818Z,19.25
2018-11-04T11:32:20.745Z,18.15
2018-11-04T11:37:01.217Z,19.73
2018-11-04T11:41:41.481Z,19.70
2018-11-04T11:46:21.649Z,19.15
2018-11-04T11:51:02.434Z,18.37
2018-11-04T11:55:42.108Z,20.32
2018-11-04T12:00:23.369Z,19.27
2018-11-04T12:05:04.373Z,20.12
2018-11-04T12:09:45.411Z,23.62
2018-11-04T12:14:25.413Z,19.98
2018-11-04T12:19:05.727Z,20.60
2018-11-04T12:23:45.743Z,20.62
2018-11-04T12:28:27.450Z,20.68
2018-11-04T12:33:07.485Z,22.10
2018-11-04T12:37:47.396Z,19.50
2018-11-04T12:42:27.998Z,22.10
2018-11-04T12:47:09.416Z,19.70
2018-11-04T12:51:49.599Z,20.60
2018-11-04T12:56:29.952Z,19.55
2018-11-04T13:01:10.045Z,19.62
2018-11-04T13:05:51.688Z,19.62
2018-11-04T13:10:32.622Z,20.05
2018-11-04T13:15:13.621Z,20.25
2018-11-04T13:19:55.342Z,19.37
2018-11-04T13:24:36.017Z,19.55
2018-11-04T13:29:15.956Z,19.20
2018-11-04T13:33:56.051Z,19.62
2018-11-04T13:38:36.570Z,19.10
2018-11-04T13:43:17.011Z,19.10
2018-11-04T13:47:57.800Z,18.37
2018-11-04T13:52:38.672Z,17.17
2018-11-04T13:57:19.552Z,17.77
2018-11-04T14:02:01.037Z,18.15
2018-11-04T14:06:40.914Z,17.82
2018-11-04T14:11:21.977Z,16.23
2018-11-04T14:16:03.873Z,17.40
2018-11-04T14:20:43.901Z,16.40
2018-11-04T14:25:24.846Z,16.15
2018-11-04T14:30:06.428Z,15.95
2018-11-04T14:34:48.435Z,16.17
2018-11-04T14:39:29.326Z,16.73
2018-11-04T14:44:09.675Z,17.48
2018-11-04T14:48:49.478Z,16.23
2018-11-04T14:53:29.871Z,17.23
2018-11-04T14:58:09.847Z,17.15
2018-11-04T15:02:49.992Z,17.57
2018-11-04T15:07:30.422Z,16.85
2018-11-04T15:12:10.121Z,18.15
2018-11-04T15:16:50.813Z,18.40
2018-11-04T15:21:31.298Z,19.32
2018-11-04T15:26:11.285Z,20.05
2018-11-04T15:30:51.332Z,20.05
2018-11-04T15:35:31.146Z,19.65
2018-11-04T15:40:13.061Z,21.02
2018-11-04T15:44:53.285Z,20.82
2018-11-04T15:49:34.685Z,20.20
2018-11-04T15:54:14.615Z,20.70
2018-11-04T15:58:55.220Z,20.45
2018-11-04T16:03:35.622Z,18.75
2018-11-04T16:08:16.273Z,20.27
2018-11-04T16:12:56.161Z,21.93
2018-11-04T16:17:36.150Z,23.20
2018-11-04T16:22:16.681Z,24.75
2018-11-04T16:26:56.745Z,24.10
2018-11-04T16:31:36.531Z,21.80
2018-11-04T16:36:16.584Z,22.90
2018-11-04T16:40:58.821Z,25.08
2018-11-04T16:45:39.041Z,24.27
2018-11-04T16:50:19.060Z,22.67
2018-11-04T16:54:59.760Z,25.57
2018-11-04T16:59:40.499Z,24.75
2018-11-04T17:04:21.982Z,25.40
2018-11-04T17:09:02.586Z,23.20
2018-11-04T17:13:43.227Z,23.80
2018-11-04T17:18:23.997Z,24.55
2018-11-04T17:23:05.004Z,24.25
2018-11-04T17:27:45.724Z,25.75
2018-11-04T17:32:27.957Z,25.85
2018-11-04T17:37:09.324Z,30.37
2018-11-04T17:41:49.778Z,38.38
2018-11-04T17:46:32.467Z,31.20
2018-11-04T17:51:13.793Z,26.02
2018-11-04T17:55:55.600Z,24.70
2018-11-04T18:00:37.180Z,22.77
2018-11-04T18:05:18.162Z,22.73
2018-11-04T18:09:58.971Z,22.32
2018-11-04T18:14:41.008Z,22.95
2018-11-04T18:19:21.994Z,21.62
2018-11-04T18:24:01.936Z,20.97
2018-11-04T18:28:41.893Z,23.55
2018-11-04T18:33:21.777Z,23.15
2018-11-04T18:38:01.950Z,24.25
2018-11-04T18:42:41.979Z,26.55
2018-11-04T18:47:22.616Z,28.47
2018-11-04T18:52:02.392Z,28.62
2018-11-04T18:56:42.729Z,28.83
2018-11-04T19:01:22.986Z,28.55
2018-11-04T19:06:02.789Z,28.85
2018-11-04T19:10:42.473Z,29.60
2018-11-04T19:15:23.808Z,29.60
2018-11-04T19:20:04.469Z,31.17
2018-11-04T19:24:44.971Z,29.77
2018-11-04T19:29:25.255Z,31.52
2018-11-04T19:34:05.089Z,30.50
2018-11-04T19:38:46.330Z,31.62
2018-11-04T19:43:26.429Z,32.60
2018-11-04T19:48:06.796Z,30.60
2018-11-04T19:52:47.239Z,28.70
2018-11-04T19:57:28.644Z,29.50
2018-11-04T20:02:09.728Z,30.25
2018-11-04T20:06:51.053Z,31.73
2018-11-04T20:11:33.434Z,29.40
2018-11-04T20:16:14.066Z,34.55
2018-11-04T20:20:54.953Z,30.77
2018-11-04T20:25:40.321Z,30.50
2018-11-04T20:30:21.440Z,30.27
2018-11-04T20:35:02.224Z,28.23
2018-11-04T20:39:48.527Z,29.02
2018-11-04T20:44:28.786Z,29.77
2018-11-04T20:49:14.825Z,29.48
2018-11-04T20:53:54.812Z,28.80
2018-11-04T20:58:38.082Z,28.83
2018-11-04T21:03:18.537Z,27.75
2018-11-04T21:07:58.832Z,28.77
2018-11-04T21:12:39.015Z,27.15
2018-11-04T21:17:19.757Z,27.27
2018-11-04T21:22:01.938Z,28.15
2018-11-04T21:26:43.015Z,27.75
2018-11-04T21:31:23.513Z,26.70
2018-11-04T21:36:03.925Z,24.82
2018-11-04T21:40:45.238Z,24.35
2018-11-04T21:45:27.453Z,22.98
2018-11-04T21:50:09.174Z,24.40
2018-11-04T21:54:49.033Z,23.12
2018-11-04T21:59:29.179Z,22.20
2018-11-04T22:04:09.980Z,21.02
2018-11-04T22:08:50.914Z,20.48
2018-11-04T22:13:31.510Z,21.17
2018-11-04T22:18:13.413Z,19.10
2018-11-04T22:22:53.254Z,19.12
2018-11-04T22:27:33.241Z,19.77
2018-11-04T22:32:13.329Z,19.42
2018-11-04T22:36:54.216Z,19.10
2018-11-04T22:41:34.185Z,19.07
2018-11-04T22:46:14.004Z,19.15
2018-11-04T22:50:54.146Z,18.82
2018-11-04T22:55:34.365Z,18.92
2018-11-04T23:00:20.749Z,17.70
2018-11-04T23:05:06.114Z,18.70
2018-11-04T23:09:46.769Z,18.52
2018-11-04T23:14:27.277Z,18.62
2018-11-04T23:19:07.421Z,18.80
2018-11-04T23:23:47.963Z,18.77
2018-11-04T23:28:28.259Z,18.90
2018-11-04T23:33:08.215Z,18.02
2018-11-04T23:37:49.233Z,19.48
2018-11-04T23:42:29.676Z,19.95
2018-11-04T23:47:10.249Z,19.15
2018-11-04T23:51:50.733Z,18.62
2018-11-04T23:56:30.637Z,19.05
